sensor_id;sensor_type;location;lat;lon;timestamp;pressure;altitude;pressure_sealevel;temperature;humidity
74708;BME280;63360;50.104;8.074;2023-04-15T00:01:35;96289.78;;;2.58;91.50
74708;BME280;63360;50.104;8.074;2023-04-15T00:04:02;96291.25;;;2.64;90.79
74708;BME280;63360;50.104;8.074;2023-04-15T00:06:30;96303.63;;;2.80;88.43
74708;BME280;63360;50.104;8.074;2023-04-15T00:08:56;96292.66;;;2.75;89.76
74708;BME280;63360;50.104;8.074;2023-04-15T00:11:23;96288.06;;;2.72;90.88
74708;BME280;63360;50.104;8.074;2023-04-15T00:13:49;96280.97;;;2.64;89.62
74708;BME280;63360;50.104;8.074;2023-04-15T00:16:16;96282.56;;;2.60;90.14
74708;BME280;63360;50.104;8.074;2023-04-15T00:18:43;96286.41;;;2.62;90.31
74708;BME280;63360;50.104;8.074;2023-04-15T00:21:09;96287.34;;;2.66;90.92
74708;BME280;63360;50.104;8.074;2023-04-15T00:23:35;96290.41;;;2.50;90.03
74708;BME280;63360;50.104;8.074;2023-04-15T00:26:02;96275.47;;;2.52;91.69
74708;BME280;63360;50.104;8.074;2023-04-15T00:28:28;96286.78;;;2.51;92.71
74708;BME280;63360;50.104;8.074;2023-04-15T00:30:56;96274.88;;;2.36;92.73
74708;BME280;63360;50.104;8.074;2023-04-15T00:33:22;96284.06;;;2.42;94.73
74708;BME280;63360;50.104;8.074;2023-04-15T00:35:49;96273.09;;;2.36;94.05
74708;BME280;63360;50.104;8.074;2023-04-15T00:38:16;96277.94;;;2.38;95.32
74708;BME280;63360;50.104;8.074;2023-04-15T00:40:43;96271.13;;;2.28;95.04
74708;BME280;63360;50.104;8.074;2023-04-15T00:43:09;96268.06;;;2.26;94.04
74708;BME280;63360;50.104;8.074;2023-04-15T00:45:35;96262.66;;;2.28;94.10
74708;BME280;63360;50.104;8.074;2023-04-15T00:48:02;96271.28;;;2.37;95.77
74708;BME280;63360;50.104;8.074;2023-04-15T00:50:30;96277.88;;;2.43;96.25
74708;BME280;63360;50.104;8.074;2023-04-15T00:52:57;96272.25;;;2.41;97.19
74708;BME280;63360;50.104;8.074;2023-04-15T00:55:23;96272.91;;;2.52;97.61
74708;BME280;63360;50.104;8.074;2023-04-15T00:57:49;96257.22;;;2.53;96.08
74708;BME280;63360;50.104;8.074;2023-04-15T01:00:16;96261.00;;;2.61;96.38
74708;BME280;63360;50.104;8.074;2023-04-15T01:02:43;96257.22;;;2.53;95.42
74708;BME280;63360;50.104;8.074;2023-04-15T01:05:10;96269.03;;;2.54;96.34
74708;BME280;63360;50.104;8.074;2023-04-15T01:07:36;96274.88;;;2.60;97.05
74708;BME280;63360;50.104;8.074;2023-04-15T01:10:03;96263.34;;;2.57;97.60
74708;BME280;63360;50.104;8.074;2023-04-15T01:12:31;96265.84;;;2.62;97.62
74708;BME280;63360;50.104;8.074;2023-04-15T01:14:58;96264.19;;;2.53;96.61
74708;BME280;63360;50.104;8.074;2023-04-15T01:17:25;96267.84;;;2.47;97.49
74708;BME280;63360;50.104;8.074;2023-04-15T01:19:51;96250.97;;;2.40;97.82
74708;BME280;63360;50.104;8.074;2023-04-15T01:22:18;96254.06;;;2.37;97.46
74708;BME280;63360;50.104;8.074;2023-04-15T01:24:50;96261.09;;;2.51;97.96
74708;BME280;63360;50.104;8.074;2023-04-15T01:27:20;96255.72;;;2.52;97.67
74708;BME280;63360;50.104;8.074;2023-04-15T01:29:47;96254.53;;;2.44;97.77
74708;BME280;63360;50.104;8.074;2023-04-15T01:32:14;96251.06;;;2.54;97.42
74708;BME280;63360;50.104;8.074;2023-04-15T01:34:40;96252.38;;;2.52;98.36
74708;BME280;63360;50.104;8.074;2023-04-15T01:37:07;96249.44;;;2.39;97.23
74708;BME280;63360;50.104;8.074;2023-04-15T01:39:33;96267.91;;;2.41;97.21
74708;BME280;63360;50.104;8.074;2023-04-15T01:42:00;96253.81;;;2.39;99.65
74708;BME280;63360;50.104;8.074;2023-04-15T01:44:26;96262.66;;;2.52;98.32
74708;BME280;63360;50.104;8.074;2023-04-15T01:46:53;96256.44;;;2.34;98.08
74708;BME280;63360;50.104;8.074;2023-04-15T01:49:19;96270.59;;;2.31;97.42
74708;BME280;63360;50.104;8.074;2023-04-15T01:51:46;96269.53;;;2.32;97.48
74708;BME280;63360;50.104;8.074;2023-04-15T01:54:12;96261.47;;;2.20;98.32
74708;BME280;63360;50.104;8.074;2023-04-15T01:56:38;96259.16;;;2.19;98.94
74708;BME280;63360;50.104;8.074;2023-04-15T01:59:05;96264.03;;;2.20;99.15
74708;BME280;63360;50.104;8.074;2023-04-15T02:01:31;96252.81;;;2.11;98.69
74708;BME280;63360;50.104;8.074;2023-04-15T02:03:58;96258.97;;;2.10;98.85
74708;BME280;63360;50.104;8.074;2023-04-15T02:06:24;96268.88;;;2.22;100.00
74708;BME280;63360;50.104;8.074;2023-04-15T02:08:51;96272.16;;;2.27;99.65
74708;BME280;63360;50.104;8.074;2023-04-15T02:11:17;96263.38;;;2.33;98.24
74708;BME280;63360;50.104;8.074;2023-04-15T02:13:43;96264.50;;;2.22;98.46
74708;BME280;63360;50.104;8.074;2023-04-15T02:16:17;96270.34;;;2.28;99.05
74708;BME280;63360;50.104;8.074;2023-04-15T02:18:45;96273.19;;;2.26;98.52
74708;BME280;63360;50.104;8.074;2023-04-15T02:21:12;96269.25;;;2.10;98.24
74708;BME280;63360;50.104;8.074;2023-04-15T02:23:38;96272.88;;;2.09;99.13
74708;BME280;63360;50.104;8.074;2023-04-15T02:26:05;96265.03;;;1.96;98.62
74708;BME280;63360;50.104;8.074;2023-04-15T02:28:32;96283.22;;;1.99;98.78
74708;BME280;63360;50.104;8.074;2023-04-15T02:30:58;96283.00;;;1.96;99.23
74708;BME280;63360;50.104;8.074;2023-04-15T02:33:25;96272.50;;;1.92;99.54
74708;BME280;63360;50.104;8.074;2023-04-15T02:35:51;96282.19;;;2.00;99.79
74708;BME280;63360;50.104;8.074;2023-04-15T02:38:18;96275.31;;;2.19;97.99
74708;BME280;63360;50.104;8.074;2023-04-15T02:40:44;96281.94;;;2.25;96.74
74708;BME280;63360;50.104;8.074;2023-04-15T02:43:11;96278.81;;;2.05;96.65
74708;BME280;63360;50.104;8.074;2023-04-15T02:45:38;96280.72;;;2.18;97.44
74708;BME280;63360;50.104;8.074;2023-04-15T02:48:04;96282.06;;;2.10;98.05
74708;BME280;63360;50.104;8.074;2023-04-15T02:50:32;96273.03;;;1.94;98.28
74708;BME280;63360;50.104;8.074;2023-04-15T02:52:58;96273.94;;;2.03;98.69
74708;BME280;63360;50.104;8.074;2023-04-15T02:55:27;96275.00;;;2.02;97.29
74708;BME280;63360;50.104;8.074;2023-04-15T02:57:53;96283.59;;;2.11;97.07
74708;BME280;63360;50.104;8.074;2023-04-15T03:00:20;96280.44;;;1.96;96.66
74708;BME280;63360;50.104;8.074;2023-04-15T03:02:47;96293.44;;;2.04;96.13
74708;BME280;63360;50.104;8.074;2023-04-15T03:05:17;96276.03;;;2.01;95.70
74708;BME280;63360;50.104;8.074;2023-04-15T03:07:44;96281.63;;;2.03;95.60
74708;BME280;63360;50.104;8.074;2023-04-15T03:10:10;96281.97;;;1.97;96.82
74708;BME280;63360;50.104;8.074;2023-04-15T03:12:37;96286.88;;;1.93;97.89
74708;BME280;63360;50.104;8.074;2023-04-15T03:15:03;96272.56;;;1.87;98.43
74708;BME280;63360;50.104;8.074;2023-04-15T03:17:30;96277.59;;;1.97;96.93
74708;BME280;63360;50.104;8.074;2023-04-15T03:19:56;96281.19;;;1.96;95.59
74708;BME280;63360;50.104;8.074;2023-04-15T03:22:23;96269.47;;;1.90;95.72
74708;BME280;63360;50.104;8.074;2023-04-15T03:24:50;96273.81;;;1.90;95.68
74708;BME280;63360;50.104;8.074;2023-04-15T03:27:16;96283.88;;;1.86;96.24
74708;BME280;63360;50.104;8.074;2023-04-15T03:29:43;96280.88;;;1.74;96.62
74708;BME280;63360;50.104;8.074;2023-04-15T03:32:09;96274.72;;;1.75;99.00
74708;BME280;63360;50.104;8.074;2023-04-15T03:34:35;96272.28;;;1.60;97.56
74708;BME280;63360;50.104;8.074;2023-04-15T03:37:02;96282.53;;;1.60;97.46
74708;BME280;63360;50.104;8.074;2023-04-15T03:39:28;96265.88;;;1.57;98.59
74708;BME280;63360;50.104;8.074;2023-04-15T03:41:54;96274.78;;;1.70;99.92
74708;BME280;63360;50.104;8.074;2023-04-15T03:44:21;96272.38;;;1.50;99.07
74708;BME280;63360;50.104;8.074;2023-04-15T03:46:47;96282.53;;;1.60;99.18
74708;BME280;63360;50.104;8.074;2023-04-15T03:49:14;96289.50;;;1.54;99.04
74708;BME280;63360;50.104;8.074;2023-04-15T03:51:41;96272.75;;;1.33;99.27
74708;BME280;63360;50.104;8.074;2023-04-15T03:54:07;96284.75;;;1.38;98.99
74708;BME280;63360;50.104;8.074;2023-04-15T03:56:34;96280.59;;;1.47;98.54
74708;BME280;63360;50.104;8.074;2023-04-15T03:59:00;96294.16;;;1.47;98.86
74708;BME280;63360;50.104;8.074;2023-04-15T04:01:27;96283.50;;;1.35;100.00
74708;BME280;63360;50.104;8.074;2023-04-15T04:03:53;96289.88;;;1.38;100.00
74708;BME280;63360;50.104;8.074;2023-04-15T04:06:20;96280.91;;;1.40;100.00
74708;BME280;63360;50.104;8.074;2023-04-15T04:08:47;96278.09;;;1.37;100.00
74708;BME280;63360;50.104;8.074;2023-04-15T04:11:13;96283.84;;;1.57;99.09
74708;BME280;63360;50.104;8.074;2023-04-15T04:13:39;96279.03;;;1.51;99.20
74708;BME280;63360;50.104;8.074;2023-04-15T04:16:06;96275.69;;;1.50;98.34
74708;BME280;63360;50.104;8.074;2023-04-15T04:18:33;96275.41;;;1.52;98.44
74708;BME280;63360;50.104;8.074;2023-04-15T04:21:00;96288.69;;;1.59;97.82
74708;BME280;63360;50.104;8.074;2023-04-15T04:23:26;96275.66;;;1.55;96.81
74708;BME280;63360;50.104;8.074;2023-04-15T04:25:53;96279.63;;;1.71;96.74
74708;BME280;63360;50.104;8.074;2023-04-15T04:28:19;96287.25;;;1.76;97.42
74708;BME280;63360;50.104;8.074;2023-04-15T04:30:46;96281.47;;;1.66;98.52
74708;BME280;63360;50.104;8.074;2023-04-15T04:33:12;96283.78;;;1.62;99.06
74708;BME280;63360;50.104;8.074;2023-04-15T04:35:38;96273.81;;;1.61;99.21
74708;BME280;63360;50.104;8.074;2023-04-15T04:38:05;96275.69;;;1.50;99.08
74708;BME280;63360;50.104;8.074;2023-04-15T04:40:31;96268.34;;;1.44;99.40
74708;BME280;63360;50.104;8.074;2023-04-15T04:42:58;96265.00;;;1.43;99.96
74708;BME280;63360;50.104;8.074;2023-04-15T04:45:24;96285.47;;;1.48;100.00
74708;BME280;63360;50.104;8.074;2023-04-15T04:47:50;96268.63;;;1.37;100.00
74708;BME280;63360;50.104;8.074;2023-04-15T04:50:17;96271.91;;;1.43;100.00
74708;BME280;63360;50.104;8.074;2023-04-15T04:52:43;96277.19;;;1.56;100.00
74708;BME280;63360;50.104;8.074;2023-04-15T04:55:10;96276.88;;;1.63;100.00
74708;BME280;63360;50.104;8.074;2023-04-15T04:57:36;96270.53;;;1.55;100.00
74708;BME280;63360;50.104;8.074;2023-04-15T05:00:06;96273.03;;;1.60;100.00
74708;BME280;63360;50.104;8.074;2023-04-15T05:02:34;96279.72;;;1.61;100.00
74708;BME280;63360;50.104;8.074;2023-04-15T05:05:01;96264.69;;;1.50;100.00
74708;BME280;63360;50.104;8.074;2023-04-15T05:07:27;96275.66;;;1.55;100.00
74708;BME280;63360;50.104;8.074;2023-04-15T05:09:54;96265.50;;;1.45;100.00
74708;BME280;63360;50.104;8.074;2023-04-15T05:12:20;96270.53;;;1.55;100.00
74708;BME280;63360;50.104;8.074;2023-04-15T05:14:46;96272.59;;;1.53;100.00
74708;BME280;63360;50.104;8.074;2023-04-15T05:17:13;96282.56;;;1.55;100.00
74708;BME280;63360;50.104;8.074;2023-04-15T05:19:39;96293.88;;;1.54;100.00
74708;BME280;63360;50.104;8.074;2023-04-15T05:22:06;96282.91;;;1.48;100.00
74708;BME280;63360;50.104;8.074;2023-04-15T05:24:33;96276.28;;;1.42;100.00
74708;BME280;63360;50.104;8.074;2023-04-15T05:26:59;96298.41;;;1.62;100.00
74708;BME280;63360;50.104;8.074;2023-04-15T05:29:27;96292.25;;;1.63;100.00
74708;BME280;63360;50.104;8.074;2023-04-15T05:31:53;96288.66;;;1.64;100.00
74708;BME280;63360;50.104;8.074;2023-04-15T05:34:20;96299.28;;;1.81;100.00
74708;BME280;63360;50.104;8.074;2023-04-15T05:36:46;96301.53;;;1.88;100.00
74708;BME280;63360;50.104;8.074;2023-04-15T05:39:13;96298.38;;;1.96;100.00
74708;BME280;63360;50.104;8.074;2023-04-15T05:41:39;96291.41;;;2.01;100.00
74708;BME280;63360;50.104;8.074;2023-04-15T05:44:06;96298.78;;;2.08;100.00
74708;BME280;63360;50.104;8.074;2023-04-15T05:46:32;96289.38;;;1.98;100.00
74708;BME280;63360;50.104;8.074;2023-04-15T05:48:58;96293.97;;;2.01;100.00
74708;BME280;63360;50.104;8.074;2023-04-15T05:51:26;96304.63;;;2.13;100.00
74708;BME280;63360;50.104;8.074;2023-04-15T05:53:52;96312.22;;;2.23;100.00
74708;BME280;63360;50.104;8.074;2023-04-15T05:56:19;96299.66;;;2.22;100.00
74708;BME280;63360;50.104;8.074;2023-04-15T05:58:45;96304.09;;;2.40;100.00
74708;BME280;63360;50.104;8.074;2023-04-15T06:01:12;96311.56;;;2.60;100.00
74708;BME280;63360;50.104;8.074;2023-04-15T06:03:38;96321.59;;;2.80;99.33
74708;BME280;63360;50.104;8.074;2023-04-15T06:06:05;96309.13;;;2.92;99.52
74708;BME280;63360;50.104;8.074;2023-04-15T06:08:32;96307.84;;;3.14;99.48
74708;BME280;63360;50.104;8.074;2023-04-15T06:10:59;96310.50;;;3.41;98.06
74708;BME280;63360;50.104;8.074;2023-04-15T06:13:25;96317.84;;;3.66;96.58
74708;BME280;63360;50.104;8.074;2023-04-15T06:15:52;96312.72;;;3.98;95.70
74708;BME280;63360;50.104;8.074;2023-04-15T06:18:19;96313.72;;;4.29;94.53
74708;BME280;63360;50.104;8.074;2023-04-15T06:20:45;96318.78;;;4.62;93.03
74708;BME280;63360;50.104;8.074;2023-04-15T06:23:12;96315.31;;;4.94;90.89
74708;BME280;63360;50.104;8.074;2023-04-15T06:25:38;96313.44;;;5.21;89.74
74708;BME280;63360;50.104;8.074;2023-04-15T06:28:04;96319.34;;;5.58;88.18
74708;BME280;63360;50.104;8.074;2023-04-15T06:30:31;96328.56;;;5.94;85.94
74708;BME280;63360;50.104;8.074;2023-04-15T06:32:57;96316.13;;;6.27;83.59
74708;BME280;63360;50.104;8.074;2023-04-15T06:35:24;96330.19;;;6.91;79.80
74708;BME280;63360;50.104;8.074;2023-04-15T06:37:51;96324.47;;;7.28;75.04
74708;BME280;63360;50.104;8.074;2023-04-15T06:40:17;96322.47;;;7.51;72.85
74708;BME280;63360;50.104;8.074;2023-04-15T06:42:44;96317.16;;;7.82;71.59
74708;BME280;63360;50.104;8.074;2023-04-15T06:45:10;96334.34;;;7.86;72.80
74708;BME280;63360;50.104;8.074;2023-04-15T06:47:37;96338.47;;;7.79;72.91
74708;BME280;63360;50.104;8.074;2023-04-15T06:50:03;96332.22;;;7.46;72.94
74708;BME280;63360;50.104;8.074;2023-04-15T06:52:30;96328.59;;;7.55;73.13
74708;BME280;63360;50.104;8.074;2023-04-15T06:54:56;96332.31;;;8.09;72.63
74708;BME280;63360;50.104;8.074;2023-04-15T06:57:24;96336.25;;;8.24;70.93
74708;BME280;63360;50.104;8.074;2023-04-15T06:59:51;96324.53;;;8.18;71.40
74708;BME280;63360;50.104;8.074;2023-04-15T07:02:19;96331.53;;;8.34;70.79
74708;BME280;63360;50.104;8.074;2023-04-15T07:04:46;96338.69;;;8.37;71.29
74708;BME280;63360;50.104;8.074;2023-04-15T07:07:13;96330.41;;;8.44;69.95
74708;BME280;63360;50.104;8.074;2023-04-15T07:09:40;96340.66;;;8.32;70.47
74708;BME280;63360;50.104;8.074;2023-04-15T07:12:06;96329.25;;;8.33;71.74
74708;BME280;63360;50.104;8.074;2023-04-15T07:14:33;96327.16;;;8.56;72.85
74708;BME280;63360;50.104;8.074;2023-04-15T07:16:59;96325.00;;;8.95;72.71
74708;BME280;63360;50.104;8.074;2023-04-15T07:19:26;96325.00;;;9.16;68.86
74708;BME280;63360;50.104;8.074;2023-04-15T07:21:52;96335.88;;;9.71;67.63
74708;BME280;63360;50.104;8.074;2023-04-15T07:24:18;96325.47;;;10.25;65.30
74708;BME280;63360;50.104;8.074;2023-04-15T07:26:45;96328.13;;;10.73;64.29
74708;BME280;63360;50.104;8.074;2023-04-15T07:29:12;96335.38;;;11.56;61.87
74708;BME280;63360;50.104;8.074;2023-04-15T07:31:39;96331.81;;;11.88;59.36
74708;BME280;63360;50.104;8.074;2023-04-15T07:34:06;96325.59;;;12.36;58.29
74708;BME280;63360;50.104;8.074;2023-04-15T07:36:33;96315.03;;;12.17;55.19
74708;BME280;63360;50.104;8.074;2023-04-15T07:39:00;96321.28;;;12.12;56.61
74708;BME280;63360;50.104;8.074;2023-04-15T07:41:29;96321.28;;;12.28;56.47
74708;BME280;63360;50.104;8.074;2023-04-15T07:43:56;96325.50;;;12.48;55.84
74708;BME280;63360;50.104;8.074;2023-04-15T07:46:22;96336.53;;;12.42;54.21
74708;BME280;63360;50.104;8.074;2023-04-15T07:48:49;96330.28;;;12.31;55.85
74708;BME280;63360;50.104;8.074;2023-04-15T07:51:16;96333.97;;;12.92;53.91
74708;BME280;63360;50.104;8.074;2023-04-15T07:53:42;96338.03;;;12.90;54.46
74708;BME280;63360;50.104;8.074;2023-04-15T07:56:09;96346.41;;;12.99;55.18
74708;BME280;63360;50.104;8.074;2023-04-15T07:58:36;96348.88;;;13.07;55.96
74708;BME280;63360;50.104;8.074;2023-04-15T08:01:03;96350.47;;;12.96;56.59
74708;BME280;63360;50.104;8.074;2023-04-15T08:03:30;96347.69;;;13.05;55.67
74708;BME280;63360;50.104;8.074;2023-04-15T08:05:57;96341.53;;;13.48;54.90
74708;BME280;63360;50.104;8.074;2023-04-15T08:08:23;96353.66;;;12.43;56.09
74708;BME280;63360;50.104;8.074;2023-04-15T08:10:50;96362.44;;;12.50;55.92
74708;BME280;63360;50.104;8.074;2023-04-15T08:13:18;96363.63;;;12.37;56.53
74708;BME280;63360;50.104;8.074;2023-04-15T08:15:44;96356.28;;;12.43;57.19
74708;BME280;63360;50.104;8.074;2023-04-15T08:18:11;96354.63;;;12.50;57.27
74708;BME280;63360;50.104;8.074;2023-04-15T08:20:37;96359.22;;;12.41;56.98
74708;BME280;63360;50.104;8.074;2023-04-15T08:23:04;96367.66;;;12.66;56.12
74708;BME280;63360;50.104;8.074;2023-04-15T08:25:30;96366.06;;;12.61;56.93
74708;BME280;63360;50.104;8.074;2023-04-15T08:27:56;96371.63;;;12.16;57.65
74708;BME280;63360;50.104;8.074;2023-04-15T08:30:23;96362.25;;;12.59;56.00
74708;BME280;63360;50.104;8.074;2023-04-15T08:32:49;96377.69;;;12.64;54.27
74708;BME280;63360;50.104;8.074;2023-04-15T08:35:16;96368.09;;;12.52;53.90
74708;BME280;63360;50.104;8.074;2023-04-15T08:37:43;96372.09;;;12.97;55.79
74708;BME280;63360;50.104;8.074;2023-04-15T08:40:10;96363.28;;;12.86;53.45
74708;BME280;63360;50.104;8.074;2023-04-15T08:42:40;96371.88;;;12.70;55.33
74708;BME280;63360;50.104;8.074;2023-04-15T08:45:10;96369.16;;;12.67;54.06
74708;BME280;63360;50.104;8.074;2023-04-15T08:47:37;96378.34;;;12.45;54.82
74708;BME280;63360;50.104;8.074;2023-04-15T08:50:08;96379.41;;;12.01;55.37
74708;BME280;63360;50.104;8.074;2023-04-15T08:52:35;96384.75;;;12.63;54.26
74708;BME280;63360;50.104;8.074;2023-04-15T08:55:02;96391.56;;;12.09;55.22
74708;BME280;63360;50.104;8.074;2023-04-15T08:57:30;96379.69;;;12.55;52.83
74708;BME280;63360;50.104;8.074;2023-04-15T09:00:01;96386.19;;;12.92;53.93
74708;BME280;63360;50.104;8.074;2023-04-15T09:02:30;96372.03;;;12.62;51.93
74708;BME280;63360;50.104;8.074;2023-04-15T09:04:57;96394.53;;;12.66;54.27
74708;BME280;63360;50.104;8.074;2023-04-15T09:07:23;96383.03;;;12.24;52.76
74708;BME280;63360;50.104;8.074;2023-04-15T09:09:50;96388.28;;;11.84;52.83
74708;BME280;63360;50.104;8.074;2023-04-15T09:12:17;96390.44;;;12.38;52.54
74708;BME280;63360;50.104;8.074;2023-04-15T09:14:45;96386.66;;;12.51;53.72
74708;BME280;63360;50.104;8.074;2023-04-15T09:17:12;96391.16;;;12.66;50.35
74708;BME280;63360;50.104;8.074;2023-04-15T09:19:39;96396.78;;;12.84;50.15
74708;BME280;63360;50.104;8.074;2023-04-15T09:22:05;96392.50;;;12.60;48.57
74708;BME280;63360;50.104;8.074;2023-04-15T09:24:36;96400.31;;;12.44;49.55
74708;BME280;63360;50.104;8.074;2023-04-15T09:27:04;96406.75;;;11.67;51.01
74708;BME280;63360;50.104;8.074;2023-04-15T09:29:31;96407.97;;;11.70;52.63
74708;BME280;63360;50.104;8.074;2023-04-15T09:32:11;96410.41;;;11.38;54.54
74708;BME280;63360;50.104;8.074;2023-04-15T09:34:38;96397.28;;;11.35;53.25
74708;BME280;63360;50.104;8.074;2023-04-15T09:37:05;96413.09;;;11.54;53.68
74708;BME280;63360;50.104;8.074;2023-04-15T09:39:50;96410.06;;;11.52;54.50
74708;BME280;63360;50.104;8.074;2023-04-15T09:42:17;96413.50;;;11.68;55.20
74708;BME280;63360;50.104;8.074;2023-04-15T09:44:50;96400.03;;;11.78;54.96
74708;BME280;63360;50.104;8.074;2023-04-15T09:47:28;96411.44;;;11.74;53.30
74708;BME280;63360;50.104;8.074;2023-04-15T09:49:55;96417.09;;;11.39;54.17
74708;BME280;63360;50.104;8.074;2023-04-15T09:52:23;96425.47;;;11.33;53.68
74708;BME280;63360;50.104;8.074;2023-04-15T09:54:52;96423.00;;;11.12;52.64
74708;BME280;63360;50.104;8.074;2023-04-15T09:57:19;96413.78;;;11.15;52.60
74708;BME280;63360;50.104;8.074;2023-04-15T09:59:47;96422.88;;;11.21;54.06
74708;BME280;63360;50.104;8.074;2023-04-15T10:02:13;96422.03;;;11.17;51.92
74708;BME280;63360;50.104;8.074;2023-04-15T10:04:41;96428.50;;;11.11;55.46
74708;BME280;63360;50.104;8.074;2023-04-15T10:07:08;96414.84;;;10.89;52.35
74708;BME280;63360;50.104;8.074;2023-04-15T10:09:35;96427.44;;;10.87;53.02
74708;BME280;63360;50.104;8.074;2023-04-15T10:12:03;96414.38;;;10.63;52.65
74708;BME280;63360;50.104;8.074;2023-04-15T10:14:33;96418.94;;;10.66;54.86
74708;BME280;63360;50.104;8.074;2023-04-15T10:17:01;96413.22;;;10.85;52.63
74708;BME280;63360;50.104;8.074;2023-04-15T10:19:30;96407.59;;;10.95;52.97
74708;BME280;63360;50.104;8.074;2023-04-15T10:21:58;96428.28;;;11.16;52.51
74708;BME280;63360;50.104;8.074;2023-04-15T10:24:25;96412.78;;;11.19;53.70
74708;BME280;63360;50.104;8.074;2023-04-15T10:26:53;96417.34;;;11.22;53.66
74708;BME280;63360;50.104;8.074;2023-04-15T10:29:20;96424.81;;;11.24;52.35
74708;BME280;63360;50.104;8.074;2023-04-15T10:31:48;96421.16;;;11.25;54.30
74708;BME280;63360;50.104;8.074;2023-04-15T10:34:17;96433.94;;;11.30;53.60
74708;BME280;63360;50.104;8.074;2023-04-15T10:36:43;96419.72;;;11.03;53.42
74708;BME280;63360;50.104;8.074;2023-04-15T10:42:16;96420.94;;;10.93;53.76
74708;BME280;63360;50.104;8.074;2023-04-15T10:44:48;96430.66;;;10.96;53.83
74708;BME280;63360;50.104;8.074;2023-04-15T10:47:19;96461.03;;;10.92;55.05
74708;BME280;63360;50.104;8.074;2023-04-15T10:49:51;96447.78;;;10.73;54.40
74708;BME280;63360;50.104;8.074;2023-04-15T10:52:24;96464.03;;;10.70;51.65
74708;BME280;63360;50.104;8.074;2023-04-15T10:57:40;96468.88;;;10.60;54.37
74708;BME280;63360;50.104;8.074;2023-04-15T11:00:14;96468.06;;;10.80;52.74
74708;BME280;63360;50.104;8.074;2023-04-15T11:02:53;96452.00;;;10.66;52.94
74708;BME280;63360;50.104;8.074;2023-04-15T11:05:23;96469.63;;;10.60;54.88
74708;BME280;63360;50.104;8.074;2023-04-15T11:08:12;96468.94;;;10.51;52.51
74708;BME280;63360;50.104;8.074;2023-04-15T11:13:15;96457.28;;;10.57;51.31
74708;BME280;63360;50.104;8.074;2023-04-15T11:15:43;96464.44;;;10.60;52.06
74708;BME280;63360;50.104;8.074;2023-04-15T11:18:18;96466.28;;;10.60;50.55
74708;BME280;63360;50.104;8.074;2023-04-15T11:20:47;96483.06;;;10.62;52.13
74708;BME280;63360;50.104;8.074;2023-04-15T11:23:14;96470.00;;;10.71;50.79
74708;BME280;63360;50.104;8.074;2023-04-15T11:25:41;96480.19;;;10.76;49.06
74708;BME280;63360;50.104;8.074;2023-04-15T11:28:10;96484.78;;;10.91;50.57
74708;BME280;63360;50.104;8.074;2023-04-15T11:30:38;96490.84;;;10.95;50.95
74708;BME280;63360;50.104;8.074;2023-04-15T11:33:09;96481.22;;;10.95;50.03
74708;BME280;63360;50.104;8.074;2023-04-15T11:35:37;96484.97;;;10.86;49.89
74708;BME280;63360;50.104;8.074;2023-04-15T11:38:11;96486.28;;;10.92;50.95
74708;BME280;63360;50.104;8.074;2023-04-15T11:40:39;96497.13;;;10.94;51.87
74708;BME280;63360;50.104;8.074;2023-04-15T11:43:10;96491.06;;;11.02;50.73
74708;BME280;63360;50.104;8.074;2023-04-15T11:45:38;96498.81;;;10.78;52.05
74708;BME280;63360;50.104;8.074;2023-04-15T11:48:13;96493.94;;;10.64;50.94
74708;BME280;63360;50.104;8.074;2023-04-15T11:50:40;96494.22;;;10.51;52.81
74708;BME280;63360;50.104;8.074;2023-04-15T11:53:08;96502.66;;;10.48;52.95
74708;BME280;63360;50.104;8.074;2023-04-15T11:55:45;96508.88;;;10.34;53.96
74708;BME280;63360;50.104;8.074;2023-04-15T11:58:20;96503.47;;;10.40;54.04
74708;BME280;63360;50.104;8.074;2023-04-15T12:11:27;96516.56;;;10.64;56.08
74708;BME280;63360;50.104;8.074;2023-04-15T12:14:08;96540.09;;;10.67;57.96
74708;BME280;63360;50.104;8.074;2023-04-15T12:16:37;96536.19;;;10.61;58.12
74708;BME280;63360;50.104;8.074;2023-04-15T12:19:16;96539.69;;;10.45;58.44
74708;BME280;63360;50.104;8.074;2023-04-15T12:21:45;96528.19;;;10.25;59.16
74708;BME280;63360;50.104;8.074;2023-04-15T12:24:13;96547.34;;;10.41;60.10
74708;BME280;63360;50.104;8.074;2023-04-15T12:26:44;96554.59;;;10.56;59.76
74708;BME280;63360;50.104;8.074;2023-04-15T12:29:12;96544.94;;;10.36;60.32
74708;BME280;63360;50.104;8.074;2023-04-15T12:31:58;96560.97;;;10.38;61.60
74708;BME280;63360;50.104;8.074;2023-04-15T12:34:37;96567.13;;;10.33;61.92
74708;BME280;63360;50.104;8.074;2023-04-15T12:37:06;96551.28;;;10.26;61.82
74708;BME280;63360;50.104;8.074;2023-04-15T12:39:41;96566.88;;;10.26;62.41
74708;BME280;63360;50.104;8.074;2023-04-15T12:42:08;96567.13;;;10.13;63.10
74708;BME280;63360;50.104;8.074;2023-04-15T12:44:35;96558.81;;;10.19;62.86
74708;BME280;63360;50.104;8.074;2023-04-15T12:47:02;96581.56;;;10.22;62.82
74708;BME280;63360;50.104;8.074;2023-04-15T12:49:30;96573.69;;;10.10;63.73
74708;BME280;63360;50.104;8.074;2023-04-15T12:51:58;96580.19;;;10.25;62.99
74708;BME280;63360;50.104;8.074;2023-04-15T12:54:26;96578.22;;;10.22;62.84
74708;BME280;63360;50.104;8.074;2023-04-15T12:56:53;96574.88;;;10.42;63.65
74708;BME280;63360;50.104;8.074;2023-04-15T12:59:20;96570.25;;;10.48;62.81
74708;BME280;63360;50.104;8.074;2023-04-15T13:01:49;96579.00;;;10.43;62.71
74708;BME280;63360;50.104;8.074;2023-04-15T13:04:16;96576.03;;;10.32;62.55
74708;BME280;63360;50.104;8.074;2023-04-15T13:06:43;96584.75;;;10.28;63.66
74708;BME280;63360;50.104;8.074;2023-04-15T13:09:09;96583.31;;;10.39;63.54
74708;BME280;63360;50.104;8.074;2023-04-15T13:11:35;96593.06;;;10.21;64.28
74708;BME280;63360;50.104;8.074;2023-04-15T13:14:06;96591.19;;;9.93;66.52
74708;BME280;63360;50.104;8.074;2023-04-15T13:16:34;96601.66;;;9.84;69.32
74708;BME280;63360;50.104;8.074;2023-04-15T13:19:02;96598.66;;;9.73;69.70
74708;BME280;63360;50.104;8.074;2023-04-15T13:21:29;96611.94;;;9.63;71.00
74708;BME280;63360;50.104;8.074;2023-04-15T13:23:57;96607.72;;;9.50;71.73
74708;BME280;63360;50.104;8.074;2023-04-15T13:26:23;96608.84;;;9.32;73.81